M I D A S
Marine Information and Data Acquisition System
Tripno 1960 of the Zeeleeuw from 2010-09-13 06:19:30 to 2010-09-13 13:52:00
Back to CruiseResearch ActivitiesStationsMapUnderway DataData graphs

EquipmentUnitsComment
TimeDGPSUTC
LatitudeDGPSDM.mWGS84
LongitudeDGPSDM.mWGS84
TemperatureSBE03/SBE38deg celciusITS90
ConductivitySBE21S/mITS90
SalinitySBE21 Practical Salinity Units
ChlorophylAChelsea fluorimeterg/lCalibrated in Aceton
Missing or incorrect values are displayed as -999
Sea surface data collected by the RV Zeeleeuw from 2010-09-13 05:56:46 to 2010-09-13 13:56:12
Time Latitude Longitude Temperature Conductivity Salinity ChlorophylA
2010-09-13 05:57:51 51°13.662 2°55.96 19.219 2.472794 15.79497 -0.896096
2010-09-13 05:58:51 51°13.663 2°55.96 19.2223 2.472899 15.797162 -0.896096
2010-09-13 05:59:51 51°13.663 2°55.961 19.2218 2.472478 15.796161 -0.861272
2010-09-13 06:00:51 51°13.663 2°55.96 19.2295 2.472373 15.796882 -0.861272
2010-09-13 06:01:51 51°13.663 2°55.96 19.2249 2.472057 15.796373 -0.861272
2010-09-13 06:02:51 51°13.663 2°55.961 19.2296 2.472163 15.798567 -0.896096
2010-09-13 06:03:49 51°13.662 2°55.961 19.2293 2.472058 15.799288 -0.861272
2010-09-13 06:04:48 51°13.662 2°55.961 19.2267 2.471321 15.795349 -0.826448
2010-09-13 06:05:47 51°13.663 2°55.961 19.2269 2.471321 15.796563 -0.861272
2010-09-13 06:06:48 51°13.662 2°55.961 19.2215 2.471321 15.798021 -0.861272
2010-09-13 06:07:47 51°13.662 2°55.962 19.2308 2.471216 15.7985 -0.861272
2010-09-13 06:08:47 51°13.663 2°55.96 19.2275 2.4709 15.797263 -0.861272
2010-09-13 06:09:48 51°13.661 2°55.962 19.2295 2.4709 15.799208 -0.861272
2010-09-13 06:10:47 51°13.661 2°55.962 19.2318 2.470585 15.797727 -0.896096
2010-09-13 06:11:48 51°13.661 2°55.962 19.2356 2.47069 15.799436 -0.861272
2010-09-13 06:12:47 51°13.661 2°55.962 19.2415 2.470374 15.798442 -0.896096
2010-09-13 06:13:47 51°13.66 2°55.958 19.1546 2.469848 15.79573 -0.861272
2010-09-13 06:14:51 51°13.683 2°55.865 19.2447 2.471637 15.811665 -0.861272
2010-09-13 06:15:51 51°13.704 2°55.767 19.2389 2.470585 15.805755 -0.861272
2010-09-13 06:16:49 51°13.708 2°55.746 19.1817 2.470795 15.809177 -0.896096
2010-09-13 06:17:51 51°13.694 2°55.728 19.2453 2.472584 15.823903 -0.896096
2010-09-13 06:18:49 51°13.746 2°55.704 19.1869 2.470059 15.805721 -0.861272
2010-09-13 06:19:48 51°13.87 2°55.603 19.1515 2.467218 15.785331 -0.896096
2010-09-13 06:20:47 51°14.019 2°55.49 19.1866 2.468165 15.794884 -0.861272
2010-09-13 06:21:47 51°14.175 2°55.38 19.2151 2.469007 15.803461 -0.861272
2010-09-13 06:22:47 51°14.325 2°55.251 19.2152 2.46827 15.79976 -0.861272
2010-09-13 06:23:47 51°14.471 2°55.11 19.2147 2.468375 15.802202 -0.896096
2010-09-13 06:24:47 51°14.604 2°54.94 19.2371 2.469849 15.819113 -0.861272
2010-09-13 06:25:47 51°14.644 2°54.642 19.2168 2.471532 15.830431 -0.896096
2010-09-13 06:26:47 51°14.553 2°54.336 19.1851 2.46585 15.791562 -0.861272
2010-09-13 06:27:47 51°14.411 2°54.068 19.1656 2.470796 15.827219 -0.896096
2010-09-13 06:28:47 51°14.278 2°53.79 19.1767 2.474689 15.861868 -0.861272
2010-09-13 06:29:47 51°14.155 2°53.506 19.1875 2.473111 15.85177 -0.861272
2010-09-13 06:30:47 51°14.029 2°53.224 19.1855 2.470585 15.830871 -0.896096
2010-09-13 06:31:47 51°13.904 2°52.94 19.1884 2.476268 15.879319 -0.861272
2010-09-13 06:32:47 51°13.777 2°52.657 19.1923 2.473742 15.85718 -0.896096
2010-09-13 06:33:47 51°13.651 2°52.37 19.1748 2.476794 15.883013 -0.896096
2010-09-13 06:34:47 51°13.523 2°52.084 19.1918 2.476478 15.884476 -0.896096
2010-09-13 06:35:47 51°13.395 2°51.796 19.2067 2.472585 15.863505 -0.896096
2010-09-13 06:36:47 51°13.266 2°51.512 19.2222 2.475216 15.884932 -0.896096
2010-09-13 06:37:47 51°13.139 2°51.224 19.2231 2.471007 15.857809 -0.896096
2010-09-13 06:38:47 51°13.011 2°50.938 19.2307 2.471112 15.864435 -0.896096
2010-09-13 06:39:47 51°12.883 2°50.651 19.2454 2.470797 15.868598 -0.896096
2010-09-13 06:40:47 51°12.755 2°50.366 19.2349 2.479215 15.935946 -0.896096
2010-09-13 06:41:47 51°12.627 2°50.08 19.2604 2.47227 15.891501 -0.896096
2010-09-13 06:42:47 51°12.5 2°49.791 19.2468 2.471744 15.892476 -0.861272
2010-09-13 06:43:47 51°12.396 2°49.484 19.2439 2.472481 15.902837 -0.861272
2010-09-13 06:44:47 51°12.295 2°49.169 19.275 2.469955 15.892937 -0.861272
2010-09-13 06:45:47 51°12.195 2°48.852 19.2797 2.470797 15.908246 -0.861272
2010-09-13 06:46:47 51°12.095 2°48.535 19.2999 2.470587 15.906021 -0.861272
2010-09-13 06:47:47 51°11.994 2°48.218 19.3123 2.468693 15.895878 -0.896096
2010-09-13 06:48:47 51°11.895 2°47.9 19.3073 2.470061 15.917881 -0.861272
2010-09-13 06:49:47 51°11.795 2°47.582 19.3249 2.468588 15.907239 -0.896096
2010-09-13 06:50:47 51°11.694 2°47.264 19.3405 2.468062 15.904269 -0.896096
2010-09-13 06:51:47 51°11.593 2°46.946 19.3392 2.464905 15.889159 -0.93092
2010-09-13 06:52:47 51°11.493 2°46.626 19.3445 2.469536 15.937705 -0.861272
2010-09-13 06:53:47 51°11.392 2°46.304 19.3589 2.468589 15.945912 -0.896096
2010-09-13 06:54:47 51°11.291 2°45.982 19.3723 2.464801 15.904495 -0.896096
2010-09-13 06:55:47 51°11.19 2°45.661 19.3929 2.465853 15.925322 -0.861272
2010-09-13 06:56:47 51°11.089 2°45.339 19.3877 2.465537 15.922841 -0.896096
2010-09-13 06:57:47 51°10.994 2°45.034 19.4174 2.468168 15.94741 -0.896096
2010-09-13 06:58:47 51°10.934 2°44.84 19.4276 2.481111 16.048518 -0.896096
2010-09-13 06:59:47 51°10.892 2°44.706 19.4296 2.480269 16.040802 -0.826448
2010-09-13 07:00:47 51°10.887 2°44.654 19.459 2.471957 15.995419 -0.896096
2010-09-13 07:01:47 51°10.881 2°44.649 19.4582 2.473009 16.004375 -0.861272
2010-09-13 07:02:47 51°10.874 2°44.649 19.4337 2.471009 15.979474 -0.826448
2010-09-13 07:03:47 51°10.866 2°44.651 19.4563 2.466801 15.95565 -0.896096
2010-09-13 07:04:47 51°10.858 2°44.654 19.4853 2.466485 15.956654 -0.861272
2010-09-13 07:05:47 51°10.85 2°44.655 19.5091 2.465012 15.948461 -0.861272
2010-09-13 07:06:47 51°10.841 2°44.654 19.5368 2.463013 15.936042 -0.896096
2010-09-13 07:07:47 51°10.833 2°44.652 19.5564 2.457015 15.890083 -0.826448
2010-09-13 07:08:47 51°10.825 2°44.65 19.5856 2.456173 15.885364 -0.826448
2010-09-13 07:09:47 51°10.818 2°44.647 19.6182 2.456068 15.888838 -0.861272
2010-09-13 07:10:47 51°10.84 2°44.683 19.6377 2.452386 15.861765 -0.791624
2010-09-13 07:11:47 51°10.908 2°44.783 19.6769 2.451544 15.853328 -0.826448
2010-09-13 07:12:47 51°11.003 2°44.869 19.6948 2.451649 15.854816 -0.826448
2010-09-13 07:13:47 51°11.086 2°44.992 19.7212 2.451649 15.860267 -0.826448
2010-09-13 07:14:47 51°11.149 2°45.141 19.6284 2.450071 15.844384 -0.826448
2010-09-13 07:15:47 51°11.102 2°45.248 19.6939 2.453754 15.880882 -0.861272
2010-09-13 07:16:47 51°11.033 2°45.224 19.7662 2.468485 15.996309 -0.861272
2010-09-13 07:17:47 51°10.969 2°45.134 19.8268 2.467327 15.987846 -0.826448
2010-09-13 07:18:47 51°10.928 2°45.053 19.8866 2.467538 15.988338 -0.826448
2010-09-13 07:19:47 51°10.898 2°44.984 19.9303 2.464697 15.967683 -0.826448
2010-09-13 07:20:47 51°10.873 2°44.917 19.973 2.462803 15.957994 -0.861272
2010-09-13 07:21:47 51°10.85 2°44.844 19.9832 2.46396 15.967956 -0.861272
2010-09-13 07:22:47 51°10.831 2°44.766 20.0235 2.467433 15.997857 -0.861272
2010-09-13 07:23:47 51°10.81 2°44.687 20.0679 2.460804 15.948305 -0.861272
2010-09-13 07:24:47 51°10.79 2°44.606 20.0988 2.459857 15.94533 -0.861272
2010-09-13 07:25:47 51°10.768 2°44.525 20.1474 2.459962 15.946827 -0.861272
2010-09-13 07:26:47 51°10.747 2°44.444 20.1738 2.456174 15.921439 -0.861272
2010-09-13 07:27:47 51°10.725 2°44.361 20.2011 2.459962 15.951824 -0.826448
2010-09-13 07:28:47 51°10.703 2°44.28 20.2416 2.454596 15.915724 -0.826448
2010-09-13 07:29:47 51°10.683 2°44.196 20.2802 2.460383 15.957814 -0.826448
2010-09-13 07:30:47 51°10.669 2°44.113 20.3163 2.459331 15.951092 -0.861272
2010-09-13 07:31:47 51°10.655 2°44.031 20.3698 2.455017 15.925452 -0.826448
2010-09-13 07:32:47 51°10.642 2°43.943 20.3701 2.458384 15.952619 -0.861272
2010-09-13 07:33:47 51°10.627 2°43.846 20.4324 2.452597 15.91051 -0.861272
2010-09-13 07:34:47 51°10.609 2°43.779 20.4521 2.456385 15.942417 -0.826448
2010-09-13 07:35:47 51°10.589 2°43.73 20.4331 2.453544 15.922481 -0.826448
2010-09-13 07:36:47 51°10.585 2°43.591 20.2419 2.441759 15.83182 -0.861272
2010-09-13 07:37:47 51°10.685 2°43.416 20.4109 2.450914 15.910033 -0.826448
2010-09-13 07:38:47 51°10.763 2°43.155 20.4139 2.448599 15.893832 -0.826448
2010-09-13 07:39:47 51°10.796 2°42.855 20.3596 2.440707 15.829813 -0.791624
2010-09-13 07:40:47 51°10.868 2°42.706 20.4821 2.455123 15.949965 -0.826448
2010-09-13 07:41:47 51°10.878 2°42.684 20.7026 2.457438 15.963422 -0.826448
2010-09-13 07:42:50 51°10.857 2°42.651 20.7256 2.453755 15.941488 -0.861272
2010-09-13 07:43:48 51°10.84 2°42.627 20.7556 2.451019 15.924782 -0.826448
2010-09-13 07:44:47 51°10.825 2°42.606 20.7778 2.44902 15.911062 -0.826448
2010-09-13 07:45:47 51°10.811 2°42.588 20.8176 2.449967 15.9198 -0.826448
2010-09-13 07:46:47 51°10.8 2°42.571 20.8555 2.452808 15.943019 -0.791624
2010-09-13 07:47:47 51°10.791 2°42.556 20.8789 2.449546 15.922312 -0.826448
2010-09-13 07:48:47 51°10.784 2°42.545 20.9314 2.449336 15.922818 -0.826448
2010-09-13 07:49:47 51°10.778 2°42.538 20.9536 2.44902 15.921573 -0.826448
2010-09-13 07:50:47 51°10.776 2°42.538 20.9833 2.451651 15.94456 -0.826448
2010-09-13 07:51:47 51°10.825 2°42.617 20.9583 2.441866 15.872154 -0.791624
2010-09-13 07:52:47 51°10.896 2°42.762 20.9634 2.435132 15.821259 -0.791624
2010-09-13 07:53:47 51°10.967 2°42.92 21.016 2.43892 15.853686 -0.826448
2010-09-13 07:54:47 51°11.052 2°43.053 20.7221 2.43208 15.800056 -0.826448
2010-09-13 07:55:47 51°11.041 2°43.163 20.8746 2.440077 15.867914 -0.826448
2010-09-13 07:56:47 51°10.973 2°43.187 20.9209 2.44639 15.917374 -0.826448
2010-09-13 07:57:47 51°10.889 2°43.152 20.998 2.4486 15.934118 -0.826448
2010-09-13 07:58:47 51°10.827 2°43.095 21.0589 2.459543 16.015633 -0.791624
2010-09-13 07:59:47 51°10.775 2°43.029 21.0786 2.456807 15.997893 -0.791624
2010-09-13 08:00:47 51°10.733 2°42.955 21.1178 2.456702 15.998655 -0.791624
2010-09-13 08:01:47 51°10.698 2°42.874 21.1508 2.4607 16.02843 -0.826448
2010-09-13 08:02:47 51°10.667 2°42.789 21.1937 2.447443 15.934154 -0.826448
2010-09-13 08:03:47 51°10.643 2°42.698 21.2264 2.452072 15.972695 -0.791624
2010-09-13 08:04:47 51°10.621 2°42.605 21.2682 2.450178 15.961201 -0.826448
2010-09-13 08:05:47 51°10.602 2°42.512 21.3062 2.445128 15.926189 -0.826448
2010-09-13 08:06:47 51°10.585 2°42.417 21.3267 2.447232 15.943458 -0.826448
2010-09-13 08:07:47 51°10.571 2°42.319 21.3726 2.443234 15.915947 -0.861272
2010-09-13 08:08:47 51°10.559 2°42.22 21.386 2.441656 15.907703 -0.861272
2010-09-13 08:09:47 51°10.55 2°42.124 21.4156 2.45102 15.980057 -0.861272
2010-09-13 08:10:47 51°10.545 2°42.029 21.4524 2.443445 15.926744 -0.791624
2010-09-13 08:11:47 51°10.546 2°41.919 21.4727 2.4385 15.893717 -0.791624
2010-09-13 08:12:47 51°10.552 2°41.804 21.4897 2.436501 15.879704 -0.861272
2010-09-13 08:13:47 51°10.552 2°41.72 21.5126 2.439762 15.907498 -0.826448
2010-09-13 08:14:47 51°10.547 2°41.658 21.5428 2.442603 15.930545 -0.826448
2010-09-13 08:15:47 51°10.539 2°41.607 21.5526 2.439131 15.908771 -0.826448
2010-09-13 08:16:47 51°10.543 2°41.522 21.5747 2.435554 15.882477 -0.826448
2010-09-13 08:17:47 51°10.599 2°41.346 21.5371 2.430293 15.84693 -0.826448
2010-09-13 08:18:47 51°10.655 2°41.094 21.4458 2.429241 15.83892 -0.791624
2010-09-13 08:19:47 51°10.735 2°40.936 21.3882 2.435554 15.892019 -0.791624
2010-09-13 08:20:47 51°10.772 2°40.928 21.6072 2.444708 15.961457 -0.826448
2010-09-13 08:21:47 51°10.771 2°40.918 21.6186 2.438395 15.916339 -0.826448
2010-09-13 08:22:47 51°10.766 2°40.908 21.6385 2.441341 15.938905 -0.826448
2010-09-13 08:23:47 51°10.761 2°40.9 21.679 2.436396 15.90457 -0.826448
2010-09-13 08:24:47 51°10.758 2°40.893 21.6954 2.440289 15.935418 -0.791624
2010-09-13 08:25:47 51°10.755 2°40.882 21.7191 2.436712 15.911609 -0.826448
2010-09-13 08:26:47 51°10.752 2°40.87 21.7289 2.439237 15.931678 -0.791624
2010-09-13 08:27:47 51°10.749 2°40.856 21.7601 2.435239 15.903596 -0.791624
2010-09-13 08:28:47 51°10.745 2°40.84 21.7859 2.436291 15.912881 -0.826448
2010-09-13 08:29:47 51°10.741 2°40.824 21.8047 2.435028 15.904861 -0.826448
2010-09-13 08:30:47 51°10.763 2°40.851 21.736 2.424086 15.820631 -0.791624
2010-09-13 08:31:47 51°10.826 2°40.973 21.7522 2.423981 15.824887 -0.791624
2010-09-13 08:32:47 51°10.925 2°41.103 21.8117 2.423139 15.820375 -0.826448
2010-09-13 08:33:47 51°10.964 2°41.214 21.6758 2.421877 15.813606 -0.7568
2010-09-13 08:34:47 51°10.885 2°41.263 21.7149 2.434187 15.909926 -0.826448
2010-09-13 08:35:47 51°10.794 2°41.229 17.8563 2.440605 15.958384 -0.791624
2010-09-13 08:36:47 51°10.733 2°41.16 18.1196 1.158249 7.615099 -0.791624
2010-09-13 08:37:47 51°10.685 2°41.09 18.4303 2.423163 16.992718 -0.791624
2010-09-13 08:38:47 51°10.644 2°41.025 18.612 2.398333 16.772292 -0.791624
2010-09-13 08:39:47 51°10.603 2°40.961 18.7192 2.387917 16.660095 -0.7568
2010-09-13 08:40:47 51°10.56 2°40.896 18.8269 2.382972 16.598626 -0.7568
2010-09-13 08:41:47 51°10.518 2°40.829 18.9611 2.378342 16.543442 -0.791624
2010-09-13 08:42:47 51°10.474 2°40.763 19.0713 2.378447 16.532047 -0.791624
2010-09-13 08:43:47 51°10.432 2°40.697 19.1559 2.377185 16.512537 -0.7568
2010-09-13 08:44:47 51°10.391 2°40.631 19.2543 2.378763 16.516896 -0.7568
2010-09-13 08:45:47 51°10.349 2°40.566 19.342 2.378342 16.505787 -0.791624
2010-09-13 08:46:47 51°10.31 2°40.499 19.435 2.381077 16.522608 -0.791624
2010-09-13 08:47:47 51°10.277 2°40.425 19.5289 2.379499 16.505823 -0.7568
2010-09-13 08:48:47 51°10.251 2°40.344 19.6031 2.379814 16.50568 -0.7568
2010-09-13 08:49:47 51°10.237 2°40.254 19.6864 2.381287 16.51432 -0.7568
2010-09-13 08:50:47 51°10.236 2°40.165 19.7634 2.381182 16.509571 -0.791624
2010-09-13 08:51:47 51°10.242 2°40.104 19.836 2.380551 16.503371 -0.7568
2010-09-13 08:52:47 51°10.248 2°40.061 19.9084 2.381918 16.512903 -0.7568
2010-09-13 08:53:47 51°10.253 2°40.029 19.9821 2.381918 16.510364 -0.791624
2010-09-13 08:54:47 51°10.258 2°40.002 20.0574 2.381182 16.503367 -0.7568
2010-09-13 08:55:47 51°10.266 2°39.971 20.126 2.382128 16.51055 -0.791624
2010-09-13 08:56:47 51°10.288 2°39.859 20.1914 2.381602 16.504587 -0.7568
2010-09-13 08:57:47 51°10.289 2°39.608 19.9491 2.381287 16.498248 -0.7568
2010-09-13 08:58:47 51°10.292 2°39.288 20.0972 2.381392 16.500455 -0.791624
2010-09-13 08:59:47 51°10.297 2°38.943 20.1725 2.381182 16.499422 -0.7568
2010-09-13 09:00:47 51°10.301 2°38.572 20.2466 2.381497 16.500971 -0.7568
2010-09-13 09:03:16 51°10.245 2°37.633 20.3584 2.381392 16.496793 -0.7568
2010-09-13 09:04:28 51°10.211 2°37.176 20.4783 2.382128 16.503786 -0.7568
2010-09-13 09:05:28 51°10.18 2°36.797 20.5497 2.381813 16.499702 -0.7568
2010-09-13 09:06:28 51°10.141 2°36.418 20.5681 2.382339 16.505945 -0.7568
2010-09-13 09:07:28 51°10.167 2°36.046 20.5184 2.382549 16.503033 -0.791624
2010-09-13 09:08:28 51°10.34 2°35.997 20.6627 2.384022 16.523788 -0.7568
2010-09-13 09:09:28 51°10.52 2°36.15 20.7555 2.379919 16.484219 -0.7568
2010-09-13 09:10:28 51°10.708 2°36.291 20.8374 2.38055 16.487316 -0.7568
2010-09-13 09:11:28 51°10.903 2°36.418 20.9199 2.38055 16.48816 -0.791624
2010-09-13 09:12:28 51°11.096 2°36.546 21.0069 2.38055 16.48816 -0.7568
2010-09-13 09:13:28 51°11.287 2°36.674 21.0926 2.380761 16.487786 -0.7568
2010-09-13 09:14:28 51°11.478 2°36.802 21.1708 2.380445 16.484831 -0.721976
2010-09-13 09:15:28 51°11.668 2°36.927 21.2377 2.380971 16.4891 -0.7568
2010-09-13 09:16:28 51°11.859 2°37.053 21.2863 2.380866 16.487739 -0.791624
2010-09-13 09:17:28 51°12.05 2°37.18 21.3716 2.380761 16.484692 -0.7568
2010-09-13 09:18:28 51°12.24 2°37.307 21.4262 2.380129 16.479065 -0.721976
2010-09-13 09:19:28 51°12.423 2°37.461 21.3293 2.381602 16.489945 -0.791624
2010-09-13 09:20:28 51°12.6 2°37.629 21.4494 2.380024 16.4763 -0.791624
2010-09-13 09:21:28 51°12.779 2°37.796 21.4517 2.380234 16.477051 -0.7568
2010-09-13 09:22:28 51°12.945 2°37.988 21.5399 2.380445 16.478083 -0.7568
2010-09-13 09:23:28 51°13.092 2°38.217 21.5671 2.380024 16.471524 -0.791624
2010-09-13 09:24:28 51°13.238 2°38.444 21.6273 2.38055 16.47579 -0.721976
2010-09-13 09:25:28 51°13.395 2°38.649 21.6636 2.38055 16.473824 -0.7568
2010-09-13 09:26:28 51°13.582 2°38.792 21.6992 2.38076 16.474575 -0.7568
2010-09-13 09:27:28 51°13.77 2°38.934 21.7433 2.38076 16.474013 -0.721976
2010-09-13 09:28:28 51°13.957 2°39.078 21.8018 2.381181 16.475796 -0.7568
2010-09-13 09:29:28 51°14.143 2°39.225 21.844 2.381497 16.477344 -0.7568
2010-09-13 09:30:28 51°14.33 2°39.371 21.8575 2.381602 16.476175 -0.791624
2010-09-13 09:31:28 51°14.517 2°39.521 21.9105 2.381812 16.476926 -0.7568
2010-09-13 09:32:28 51°14.704 2°39.671 21.9444 2.381812 16.474961 -0.7568
2010-09-13 09:33:28 51°14.891 2°39.823 21.9977 2.381707 16.474726 -0.7568
2010-09-13 09:34:28 51°15.077 2°39.976 22.0147 2.381917 16.475476 -0.7568
2010-09-13 09:35:28 51°15.263 2°40.131 22.0782 2.381707 16.471077 -0.7568
2010-09-13 09:36:28 51°15.448 2°40.288 22.1031 2.382023 16.472905 -0.7568
2010-09-13 09:37:28 51°15.633 2°40.444 22.1178 2.382549 16.476326 -0.7568
2010-09-13 09:38:28 51°15.82 2°40.598 22.1544 2.382759 16.477357 -0.7568
2010-09-13 09:39:28 51°16.023 2°40.682 22.2325 2.382022 16.467857 -0.7568
2010-09-13 09:40:28 51°16.234 2°40.699 21.814 2.382443 16.4702 -0.7568
2010-09-13 09:41:28 51°16.444 2°40.722 21.8724 2.382864 16.473384 -0.7568
2010-09-13 09:42:28 51°16.654 2°40.747 22.0662 2.383074 16.475818 -0.791624
2010-09-13 09:43:28 51°16.863 2°40.773 22.093 2.382864 16.47086 -0.7568
2010-09-13 09:44:28 51°17.072 2°40.797 22.1194 2.383074 16.47077 -0.7568
2010-09-13 09:45:28 51°17.282 2°40.818 22.1481 2.38339 16.472036 -0.7568
2010-09-13 09:46:28 51°17.492 2°40.839 22.1807 2.383074 16.469088 -0.7568
2010-09-13 09:47:28 51°17.701 2°40.858 22.2161 2.383495 16.470029 -0.7568
2010-09-13 09:48:28 51°17.911 2°40.875 22.2407 2.384021 16.475409 -0.7568
2010-09-13 09:49:28 51°18.121 2°40.888 22.266 2.384021 16.473727 -0.7568
2010-09-13 09:50:28 51°18.329 2°40.903 22.2936 2.384126 16.475084 -0.721976
2010-09-13 09:51:28 51°18.536 2°40.912 22.3197 2.383916 16.47125 -0.791624
2010-09-13 09:52:28 51°18.746 2°40.927 22.3488 2.383916 16.467888 -0.7568
2010-09-13 09:53:28 51°18.954 2°40.933 22.3736 2.384231 16.471956 -0.721976
2010-09-13 09:54:28 51°19.159 2°40.941 22.399 2.384442 16.469345 -0.7568
2010-09-13 09:55:28 51°19.364 2°40.951 22.4189 2.384547 16.47126 -0.7568
2010-09-13 09:56:28 51°19.568 2°40.961 22.4389 2.384442 16.467945 -0.7568
2010-09-13 09:57:28 51°19.774 2°40.971 22.4586 2.384652 16.467575 -0.721976
2010-09-13 09:58:28 51°19.981 2°40.98 22.4922 2.384863 16.469446 -0.7568
2010-09-13 09:59:28 51°20.189 2°40.989 22.5126 2.385178 16.473792 -0.7568
2010-09-13 10:00:28 51°20.397 2°40.999 22.5331 2.385178 16.468751 -0.7568
2010-09-13 10:01:28 51°20.603 2°41.012 22.5646 2.385494 16.470577 -0.7568
2010-09-13 10:02:28 51°20.808 2°41.023 22.5887 2.385283 16.469267 -0.7568
2010-09-13 10:03:28 51°21.011 2°41.036 22.6058 2.385494 16.469177 -0.7568
2010-09-13 10:04:32 51°21.229 2°41.058 22.6219 2.385388 16.467263 -0.7568
2010-09-13 10:05:47 51°21.489 2°41.08 22.6588 2.385914 16.469558 -0.721976
2010-09-13 10:06:47 51°21.682 2°41.154 22.6497 2.389912 16.510428 -0.791624
2010-09-13 10:07:47 51°21.8 2°41.402 22.6798 2.388755 16.491862 -0.721976
2010-09-13 10:08:47 51°21.889 2°41.681 22.6966 2.386441 16.479413 -0.791624
2010-09-13 10:09:47 51°22 2°41.941 22.7531 2.385704 16.46629 -0.721976
2010-09-13 10:10:47 51°22.155 2°42.136 22.7214 2.385283 16.459755 -0.7568
2010-09-13 10:11:47 51°22.34 2°42.23 22.7712 2.385073 16.453695 -0.721976
2010-09-13 10:12:47 51°22.54 2°42.263 22.7613 2.387387 16.480407 -0.7568
2010-09-13 10:13:47 51°22.723 2°42.382 22.7861 2.38623 16.467187 -0.721976
2010-09-13 10:14:47 51°22.902 2°42.513 22.804 2.38623 16.467746 -0.7568
2010-09-13 10:15:47 51°23.08 2°42.645 22.8335 2.386125 16.464155 -0.721976
2010-09-13 10:16:47 51°23.258 2°42.777 22.8571 2.38644 16.464302 -0.7568
2010-09-13 10:17:47 51°23.431 2°42.922 22.8719 2.386966 16.468274 -0.7568
2010-09-13 10:18:47 51°23.598 2°43.081 22.8911 2.386756 16.465567 -0.7568
2010-09-13 10:19:47 51°23.766 2°43.239 22.9167 2.386861 16.466361 -0.7568
2010-09-13 10:20:47 51°23.934 2°43.396 22.9391 2.386861 16.463007 -0.7568
2010-09-13 10:21:47 51°24.102 2°43.551 22.9559 2.387282 16.467582 -0.7568
2010-09-13 10:22:47 51°24.275 2°43.693 22.9729 2.387492 16.464978 -0.7568
2010-09-13 10:23:47 51°24.456 2°43.811 22.9859 2.387177 16.462596 -0.7568
2010-09-13 10:24:47 51°24.645 2°43.898 22.9948 2.387387 16.463625 -0.791624
2010-09-13 10:25:47 51°24.832 2°43.988 23.0127 2.387387 16.46139 -0.7568
2010-09-13 10:26:47 51°24.937 2°43.985 23.0817 2.387703 16.462934 -0.721976
2010-09-13 10:27:47 51°24.954 2°43.936 23.0966 2.387913 16.466199 -0.7568
2010-09-13 10:28:47 51°24.949 2°43.905 23.1127 2.387703 16.462655 -0.721976
2010-09-13 10:29:47 51°24.939 2°43.883 23.1267 2.388018 16.464758 -0.721976
2010-09-13 10:30:47 51°24.928 2°43.862 23.141 2.387913 16.462288 -0.7568
2010-09-13 10:31:47 51°24.914 2°43.842 23.1511 2.387808 16.459819 -0.7568
2010-09-13 10:32:47 51°24.903 2°43.826 23.166 2.388123 16.463317 -0.7568
2010-09-13 10:33:48 51°24.89 2°43.811 23.1801 2.388228 16.462715 -0.7568
2010-09-13 10:34:47 51°24.878 2°43.797 23.1915 2.388334 16.460717 -0.7568
2010-09-13 10:35:47 51°24.864 2°43.78 23.2101 2.388334 16.461275 -0.7568
2010-09-13 10:36:47 51°24.859 2°43.755 23.2223 2.388228 16.458807 -0.7568
2010-09-13 10:37:47 51°24.931 2°43.65 23.2194 2.388333 16.452906 -0.7568
2010-09-13 10:38:47 51°25.042 2°43.53 23.2422 2.388334 16.458763 -0.7568
2010-09-13 10:39:47 51°25.112 2°43.379 23.2617 2.388123 16.452434 -0.7568
2010-09-13 10:40:47 51°25.075 2°43.259 23.267 2.38907 16.464039 -0.7568
2010-09-13 10:41:47 51°25.011 2°43.23 23.2739 2.389386 16.462792 -0.7568
2010-09-13 10:42:47 51°24.937 2°43.266 23.2908 2.390227 16.473607 -0.7568
2010-09-13 10:43:47 51°24.888 2°43.362 23.3057 2.38907 16.461807 -0.7568
2010-09-13 10:44:47 51°24.887 2°43.482 23.3084 2.388859 16.456035 -0.7568
2010-09-13 10:45:47 51°24.901 2°43.578 23.3262 2.389491 16.464143 -0.7568
2010-09-13 10:46:47 51°24.9 2°43.659 23.3372 2.390017 16.466436 -0.7568
2010-09-13 10:47:47 51°24.896 2°43.751 23.3443 2.389596 16.459915 -0.7568
2010-09-13 10:48:47 51°24.879 2°43.859 23.3557 2.389596 16.463821 -0.7568
2010-09-13 10:49:47 51°24.861 2°43.962 23.3517 2.390122 16.461929 -0.7568
2010-09-13 10:50:47 51°24.846 2°44.059 23.3916 2.390122 16.46165 -0.7568
2010-09-13 10:51:47 51°24.831 2°44.154 23.1571 2.3917 16.473547 -0.7568
2010-09-13 10:52:47 51°24.808 2°44.251 23.2664 2.391069 16.470741 -0.7568
2010-09-13 10:53:47 51°24.773 2°44.347 23.2841 2.390332 16.465468 -0.791624
2010-09-13 10:54:47 51°24.73 2°44.439 23.2954 2.389911 16.46341 -0.721976
2010-09-13 10:55:47 51°24.682 2°44.526 23.3398 2.389806 16.45927 -0.791624
2010-09-13 10:56:47 51°24.615 2°44.586 23.3546 2.390122 16.462765 -0.721976
2010-09-13 10:57:47 51°24.536 2°44.566 23.3337 2.390332 16.467421 -0.7568
2010-09-13 10:58:47 51°24.462 2°44.492 23.3542 2.389911 16.448639 -0.791624
2010-09-13 10:59:47 51°24.398 2°44.388 23.3495 2.389806 16.457876 -0.7568
2010-09-13 11:00:47 51°24.352 2°44.308 23.4298 2.389385 16.444398 -0.7568
2010-09-13 11:01:47 51°24.319 2°44.249 23.3817 2.390437 16.462356 -0.7568
2010-09-13 11:02:47 51°24.297 2°44.16 23.4272 2.389806 16.454253 -0.721976
2010-09-13 11:03:47 51°24.348 2°43.976 23.4583 2.38949 16.443242 -0.7568
2010-09-13 11:04:47 51°24.478 2°43.782 23.4692 2.390543 16.460639 -0.7568
2010-09-13 11:05:47 51°24.632 2°43.63 23.4802 2.390543 16.457016 -0.721976
2010-09-13 11:06:47 51°24.782 2°43.467 23.5022 2.390648 16.458924 -0.721976
2010-09-13 11:07:47 51°24.932 2°43.308 23.5033 2.390542 16.45618 -0.7568
2010-09-13 11:08:47 51°25.079 2°43.146 23.5193 2.390753 16.455258 -0.791624
2010-09-13 11:09:47 51°25.227 2°42.982 23.5346 2.390227 16.452966 -0.7568
2010-09-13 11:10:47 51°25.387 2°42.809 23.5421 2.390122 16.452174 -0.721976
2010-09-13 11:11:47 51°25.561 2°42.646 23.5562 2.39191 16.467323 -0.7568
2010-09-13 11:12:47 51°25.751 2°42.58 23.5626 2.390753 16.454423 -0.7568
2010-09-13 11:13:47 51°25.943 2°42.526 23.5772 2.390437 16.453159 -0.7568
2010-09-13 11:14:47 51°26.136 2°42.476 23.5836 2.390332 16.455709 -0.7568
2010-09-13 11:15:47 51°26.328 2°42.432 23.5936 2.390543 16.457295 -0.7568
2010-09-13 11:16:46 51°26.446 2°42.367 23.6201 2.390332 16.459053 -0.7568
2010-09-13 11:17:47 51°26.467 2°42.293 23.622 2.390437 16.457617 -0.721976
2010-09-13 11:18:47 51°26.469 2°42.244 23.6275 2.390227 16.453524 -0.7568
2010-09-13 11:19:47 51°26.46 2°42.219 23.6353 2.390332 16.457381 -0.791624
2010-09-13 11:20:47 51°26.445 2°42.204 23.6426 2.390227 16.456588 -0.7568
2010-09-13 11:21:47 51°26.427 2°42.189 23.6487 2.390332 16.453202 -0.721976
2010-09-13 11:22:47 51°26.407 2°42.175 23.6556 2.389911 16.446691 -0.721976
2010-09-13 11:23:47 51°26.387 2°42.16 23.6613 2.390437 16.453716 -0.721976
2010-09-13 11:24:47 51°26.367 2°42.144 23.6645 2.390227 16.448233 -0.721976
2010-09-13 11:25:47 51°26.348 2°42.128 23.67 2.390648 16.453909 -0.721976
2010-09-13 11:26:47 51°26.327 2°42.112 23.677 2.390437 16.450653 -0.7568
2010-09-13 11:27:47 51°26.31 2°42.097 23.6795 2.390332 16.449304 -0.7568
2010-09-13 11:28:47 51°26.339 2°42.049 23.6762 2.390121 16.443545 -0.791624
2010-09-13 11:29:46 51°26.352 2°41.901 23.6921 2.390647 16.443889 -0.7568
2010-09-13 11:30:47 51°26.335 2°41.702 23.7074 2.390963 16.449883 -0.7568
2010-09-13 11:31:46 51°26.391 2°41.568 23.712 2.391174 16.452581 -0.7568
2010-09-13 11:32:47 51°26.452 2°41.563 23.6971 2.391279 16.45755 -0.7568
2010-09-13 11:33:47 51°26.494 2°41.582 23.7092 2.390963 16.453502 -0.7568
2010-09-13 11:34:47 51°26.54 2°41.59 23.7104 2.390753 16.449133 -0.7568
2010-09-13 11:35:47 51°26.59 2°41.575 23.7158 2.390647 16.446949 -0.721976
2010-09-13 11:36:46 51°26.639 2°41.554 23.7228 2.390963 16.4471 -0.7568
2010-09-13 11:37:47 51°26.69 2°41.539 23.7308 2.390858 16.446308 -0.7568
2010-09-13 11:38:46 51°26.739 2°41.554 23.7348 2.390963 16.445709 -0.721976
2010-09-13 11:39:47 51°26.79 2°41.568 23.7428 2.391173 16.446181 -0.791624
2010-09-13 11:40:47 51°26.843 2°41.564 23.7473 2.390963 16.443763 -0.791624
2010-09-13 11:41:47 51°26.897 2°41.548 23.7574 2.391594 16.448236 -0.721976
2010-09-13 11:42:47 51°26.951 2°41.522 23.7565 2.391068 16.444276 -0.7568
2010-09-13 11:43:47 51°27.003 2°41.49 23.7577 2.391068 16.445111 -0.7568
2010-09-13 11:44:47 51°27.056 2°41.452 23.7685 2.390963 16.443206 -0.7568
2010-09-13 11:45:47 51°27.108 2°41.416 23.7726 2.391173 16.445347 -0.721976
2010-09-13 11:46:47 51°27.156 2°41.393 23.7803 2.391594 16.444343 -0.7568
2010-09-13 11:47:47 51°27.204 2°41.398 23.7837 2.391805 16.447039 -0.7568
2010-09-13 11:48:47 51°27.243 2°41.436 23.7944 2.391384 16.443594 -0.721976
2010-09-13 11:49:46 51°27.257 2°41.508 23.81 2.391384 16.443038 -0.7568
2010-09-13 11:50:47 51°27.239 2°41.593 23.8104 2.391279 16.44586 -0.791624
2010-09-13 11:51:47 51°27.198 2°41.665 23.8211 2.391489 16.448279 -0.7568
2010-09-13 11:52:47 51°27.158 2°41.699 23.826 2.391594 16.446568 -0.7568
2010-09-13 11:53:47 51°27.128 2°41.709 23.8347 2.391384 16.447209 -0.7568
2010-09-13 11:54:47 51°27.104 2°41.706 23.8361 2.392857 16.452177 -0.7568
2010-09-13 11:55:47 51°27.085 2°41.696 23.8465 2.39191 16.457292 -0.7568
2010-09-13 11:56:47 51°27.071 2°41.686 23.8499 2.392225 16.446592 -0.7568
2010-09-13 11:57:47 51°27.046 2°41.687 23.8517 2.392225 16.451598 -0.7568
2010-09-13 11:58:46 51°26.976 2°41.769 23.8756 2.392226 16.456606 -0.7568
2010-09-13 11:59:47 51°26.841 2°41.949 23.882 2.392857 16.45468 -0.7568
2010-09-13 12:00:47 51°26.69 2°42.171 23.8872 2.392857 16.459411 -0.7568
2010-09-13 12:01:47 51°26.538 2°42.398 23.8954 2.39433 16.484163 -0.7568
2010-09-13 12:02:47 51°26.385 2°42.625 23.9029 2.394119 16.458062 -0.7568
2010-09-13 12:03:47 51°26.232 2°42.853 23.9103 2.394541 16.496083 -0.721976
2010-09-13 12:04:47 51°26.076 2°43.074 23.9205 2.393278 16.490475 -0.7568
2010-09-13 12:05:47 51°25.92 2°43.298 23.9242 2.395277 16.511149 -0.7568
2010-09-13 12:06:47 51°25.776 2°43.463 23.9495 2.394961 16.483897 -0.7568
2010-09-13 12:07:47 51°25.775 2°43.546 23.9558 2.392857 16.487021 -0.721976
2010-09-13 12:08:47 51°25.818 2°43.569 23.9697 2.392121 16.495726 -0.7568
2010-09-13 12:09:47 51°25.866 2°43.563 23.9786 2.391806 16.494743 -0.7568
2010-09-13 12:10:47 51°25.879 2°43.537 23.9841 2.39128 16.491891 -0.7568
2010-09-13 12:11:47 51°25.877 2°43.508 23.9932 2.391069 16.484149 -0.7568
2010-09-13 12:12:47 51°25.872 2°43.482 23.9997 2.390859 16.480884 -0.791624
2010-09-13 12:13:47 51°25.865 2°43.463 23.998 2.390858 16.47809 -0.7568
2010-09-13 12:14:47 51°25.856 2°43.446 23.9991 2.390858 16.474738 -0.7568
2010-09-13 12:15:47 51°25.846 2°43.43 24.0079 2.390438 16.473798 -0.7568
2010-09-13 12:16:47 51°25.834 2°43.415 24.0147 2.390438 16.469889 -0.7568
2010-09-13 12:17:47 51°25.821 2°43.402 24.019 2.390438 16.467935 -0.7568
2010-09-13 12:18:47 51°25.834 2°43.381 24.0172 2.390437 16.463471 -0.7568
2010-09-13 12:19:47 51°25.909 2°43.353 24.0255 2.390227 16.460212 -0.721976
2010-09-13 12:20:47 51°25.983 2°43.379 24.0308 2.390648 16.464221 -0.7568
2010-09-13 12:21:47 51°26.051 2°43.381 24.0311 2.390332 16.459053 -0.721976
2010-09-13 12:22:47 51°26.116 2°43.348 24.0397 2.390227 16.456588 -0.7568
2010-09-13 12:23:47 51°26.173 2°43.307 24.0453 2.390122 16.454124 -0.7568
2010-09-13 12:24:47 51°26.223 2°43.263 24.0335 2.390227 16.454916 -0.7568
2010-09-13 12:25:47 51°26.271 2°43.208 24.0477 2.390227 16.453802 -0.7568
2010-09-13 12:26:47 51°26.317 2°43.149 24.054 2.390437 16.455666 -0.7568
2010-09-13 12:27:47 51°26.366 2°43.091 24.0572 2.390227 16.451295 -0.721976
2010-09-13 12:28:47 51°26.415 2°43.034 24.0655 2.390332 16.450139 -0.7568
2010-09-13 12:29:47 51°26.466 2°42.988 24.068 2.390122 16.44577 -0.7568
2010-09-13 12:30:47 51°26.519 2°42.952 24.0713 2.390437 16.448148 -0.7568
2010-09-13 12:31:47 51°26.576 2°42.927 24.0804 2.390227 16.447954 -0.7568
2010-09-13 12:32:47 51°26.63 2°42.915 24.0825 2.390648 16.452238 -0.721976
2010-09-13 12:33:47 51°26.684 2°42.894 24.0858 2.390542 16.449218 -0.7568
2010-09-13 12:34:47 51°26.737 2°42.872 24.0901 2.390648 16.448897 -0.7568
2010-09-13 12:35:47 51°26.787 2°42.871 24.0934 2.390332 16.448747 -0.7568
2010-09-13 12:36:47 51°26.83 2°42.909 24.0929 2.390227 16.446563 -0.7568
2010-09-13 12:37:47 51°26.849 2°42.981 24.0986 2.390437 16.446478 -0.721976
2010-09-13 12:38:47 51°26.841 2°43.035 24.1036 2.390016 16.444143 -0.7568
2010-09-13 12:39:47 51°26.824 2°43.063 24.1134 2.390227 16.444893 -0.7568
2010-09-13 12:40:47 51°26.804 2°43.076 24.1158 2.390542 16.44894 -0.7568
2010-09-13 12:41:47 51°26.733 2°43.134 24.1282 2.391279 16.456993 -0.7568
2010-09-13 12:42:47 51°26.575 2°43.289 24.115 2.391384 16.451939 -0.7568
2010-09-13 12:43:47 51°26.382 2°43.452 24.1291 2.392331 16.456007 -0.7568
2010-09-13 12:44:47 51°26.183 2°43.601 24.1717 2.392857 16.44884 -0.7568
2010-09-13 12:45:47 51°25.985 2°43.751 24.1557 2.393593 16.463842 -0.7568
2010-09-13 12:46:47 51°25.785 2°43.902 24.1407 2.392857 16.453567 -0.721976
2010-09-13 12:47:47 51°25.583 2°44.058 24.1791 2.393278 16.483212 -0.791624
2010-09-13 12:48:47 51°25.378 2°44.213 24.1564 2.391805 16.457613 -0.791624
2010-09-13 12:49:47 51°25.175 2°44.374 24.1887 2.393383 16.472008 -0.7568
2010-09-13 12:50:47 51°24.981 2°44.552 24.2156 2.392016 16.501651 -0.7568
2010-09-13 12:51:47 51°24.798 2°44.755 24.228 2.392227 16.506322 -0.7568
2010-09-13 12:52:47 51°24.612 2°44.957 24.1845 2.390332 16.473004 -0.7568
2010-09-13 12:53:47 51°24.428 2°45.159 24.1877 2.390437 16.459568 -0.7568
2010-09-13 12:54:46 51°24.249 2°45.346 24.2011 2.389701 16.482495 -0.791624
2010-09-13 12:55:47 51°24.077 2°45.563 24.2094 2.388123 16.458851 -0.7568
2010-09-13 12:56:47 51°23.915 2°45.788 24.1834 2.400538 16.569954 -0.721976
2010-09-13 12:57:47 51°23.755 2°46.018 24.2133 2.393068 16.48777 -0.791624
2010-09-13 12:58:47 51°23.591 2°46.243 24.2324 2.393489 16.50717 -0.7568
2010-09-13 12:59:47 51°23.425 2°46.47 24.2141 2.399381 16.562053 -0.7568
2010-09-13 13:00:47 51°23.262 2°46.707 24.2403 2.391805 16.488308 -0.7568
2010-09-13 13:01:47 51°23.097 2°46.941 24.1935 2.389701 16.469918 -0.721976
2010-09-13 13:02:47 51°22.926 2°47.168 24.2169 2.390017 16.486557 -0.721976
2010-09-13 13:03:47 51°22.756 2°47.398 24.2137 2.388965 16.48309 -0.791624
2010-09-13 13:04:47 51°22.584 2°47.631 24.237 2.388018 16.477338 -0.721976
2010-09-13 13:05:46 51°22.417 2°47.861 24.2327 2.387597 16.463816 -0.721976
2010-09-13 13:06:47 51°22.247 2°48.104 24.251 2.387177 16.459802 -0.721976
2010-09-13 13:07:47 51°22.079 2°48.34 24.2388 2.387703 16.473835 -0.7568
2010-09-13 13:08:47 51°21.908 2°48.578 24.2718 2.387282 16.459479 -0.7568
2010-09-13 13:09:47 51°21.741 2°48.819 24.2685 2.387808 16.471833 -0.721976
2010-09-13 13:10:47 51°21.573 2°49.048 24.2625 2.386651 16.463934 -0.7568
2010-09-13 13:11:47 51°21.406 2°49.281 24.2762 2.386861 16.45742 -0.721976
2010-09-13 13:12:47 51°21.24 2°49.514 24.2839 2.38665 16.454995 -0.7568
2010-09-13 13:13:47 51°21.079 2°49.756 24.3067 2.389281 16.470933 -0.7568
2010-09-13 13:14:47 51°20.915 2°49.991 24.289 2.388123 16.466669 -0.7568
2010-09-13 13:15:47 51°20.749 2°50.223 24.3056 2.387703 16.467964 -0.7568
2010-09-13 13:16:47 51°20.584 2°50.457 24.2894 2.388334 16.47189 -0.7568
2010-09-13 13:17:47 51°20.415 2°50.689 24.3021 2.387071 16.463198 -0.721976
2010-09-13 13:18:47 51°20.25 2°50.924 24.2936 2.387176 16.456452 -0.7568
2010-09-13 13:19:47 51°20.081 2°51.161 24.2855 2.386861 16.4577 -0.7568
2010-09-13 13:20:47 51°19.914 2°51.396 24.2967 2.386756 16.456906 -0.721976
2010-09-13 13:21:47 51°19.707 2°51.517 24.3151 2.386756 16.451323 -0.791624
2010-09-13 13:22:47 51°19.482 2°51.537 24.3 2.388544 16.45505 -0.7568
2010-09-13 13:23:47 51°19.26 2°51.591 24.2899 2.388228 16.449882 -0.7568
2010-09-13 13:24:47 51°19.038 2°51.657 24.3253 2.387702 16.461538 -0.721976
2010-09-13 13:25:47 51°18.814 2°51.726 24.3131 2.388859 16.454362 -0.7568
2010-09-13 13:26:47 51°18.592 2°51.801 24.3171 2.389911 16.448082 -0.721976
2010-09-13 13:27:47 51°18.371 2°51.884 20.9581 2.399485 16.526376 -0.687152
2010-09-13 13:28:47 51°18.153 2°51.967 21.7411 2.39654 16.52684 -0.721976
2010-09-13 13:29:47 51°17.935 2°52.048 21.9626 2.393488 16.487032 -0.7568
2010-09-13 13:30:47 51°17.718 2°52.135 22.3564 2.39191 16.478204 -0.791624
2010-09-13 13:31:47 51°17.497 2°52.214 22.6519 2.391911 16.493858 -0.7568
2010-09-13 13:32:46 51°17.283 2°52.302 22.6351 2.391174 16.474326 -0.721976
2010-09-13 13:33:47 51°17.067 2°52.431 22.812 2.394015 16.516186 -0.7568
2010-09-13 13:34:47 51°16.86 2°52.566 22.5301 2.392647 16.470363 -0.721976
2010-09-13 13:35:47 51°16.667 2°52.749 22.6435 2.389386 16.46642 -0.687152
2010-09-13 13:36:47 51°16.471 2°52.934 22.6468 2.38907 16.472418 -0.7568
2010-09-13 13:37:46 51°16.269 2°53.086 22.7369 2.388334 16.463788 -0.7568
2010-09-13 13:38:47 51°16.065 2°53.245 22.7611 2.386966 16.438693 -0.7568
2010-09-13 13:39:46 51°15.88 2°53.435 22.8219 2.38665 16.45025 -0.721976
2010-09-13 13:40:47 51°15.695 2°53.639 22.777 2.385809 16.435539 -0.7568
2010-09-13 13:41:47 51°15.513 2°53.847 22.8882 2.38686 16.437622 -0.721976
2010-09-13 13:42:47 51°15.337 2°54.06 23.059 2.389596 16.445148 -0.7568
2010-09-13 13:43:46 51°15.159 2°54.262 22.9697 2.38665 16.434643 -0.7568
2010-09-13 13:44:47 51°14.984 2°54.488 23.1549 2.386335 16.44062 -0.721976
2010-09-13 13:45:47 51°14.815 2°54.714 23.0789 2.386019 16.435454 -0.7568
2010-09-13 13:46:47 51°14.641 2°54.922 23.0334 2.385704 16.447012 -0.791624
2010-09-13 13:47:47 51°14.457 2°55.112 22.9855 2.38665 16.441049 -0.7568
2010-09-13 13:48:47 51°14.28 2°55.284 22.8987 2.387071 16.450356 -0.791624
2010-09-13 13:49:47 51°14.14 2°55.402 22.8258 2.386019 16.442978 -0.791624
2010-09-13 13:50:47 51°14.019 2°55.493 22.7199 2.385072 16.435558 -0.7568
2010-09-13 13:51:47 51°13.899 2°55.579 22.8568 2.384651 16.430991 -0.7568
2010-09-13 13:52:47 51°13.803 2°55.658 22.8764 2.384967 16.4317 -0.7568
2010-09-13 13:53:47 51°13.728 2°55.774 22.9244 2.384967 16.428915 -0.791624
2010-09-13 13:54:47 51°13.679 2°55.889 22.8965 2.385598 16.430889 -0.791624
2010-09-13 13:55:47 51°13.662 2°55.959 22.981 2.385177 16.423264 -0.721976